Time;durP1;ratioP1;P1;durP2;ratioP2;P2;SDS_P1;SDS_P2;PMS_P1;PMS_P2;Temp;Humidity;BMP_temperature;BMP_pressure;BME280_temperature;BME280_humidity;BME280_pressure;Samples;Min_cycle;Max_cycle;Signal;HPM_P1;HPM_P2
2023/09/23 00:01:20;;;;;;;5.82;5.50;;;;;;;;;;5058504;28;20048;-80
2023/09/23 00:03:47;;;;;;;6.43;5.97;;;;;;;;;;5059037;28;20476;-79
2023/09/23 00:06:13;;;;;;;6.97;6.43;;;;;;;;;;5069071;28;20056;-80
2023/09/23 00:08:39;;;;;;;8.80;8.18;;;;;;;;;;5078482;28;20036;-80
2023/09/23 00:11:08;;;;;;;6.72;6.22;;;;;;;;;;5078410;28;20192;-79
2023/09/23 00:13:35;;;;;;;6.80;6.15;;;;;;;;;;5060786;28;20044;-79
2023/09/23 00:16:07;;;;;;;7.38;6.82;;;;;;;;;;5096065;28;20396;-80
2023/09/23 00:18:33;;;;;;;7.72;6.95;;;;;;;;;;5078375;28;20113;-79
2023/09/23 00:21:00;;;;;;;7.75;7.15;;;;;;;;;;5079021;28;20048;-80
2023/09/23 00:23:27;;;;;;;8.18;7.47;;;;;;;;;;5062338;28;20056;-80
2023/09/23 00:25:53;;;;;;;9.10;8.30;;;;;;;;;;5062346;28;20083;-80
2023/09/23 00:28:20;;;;;;;8.90;8.20;;;;;;;;;;5078844;28;20040;-80
2023/09/23 00:30:47;;;;;;;7.75;7.35;;;;;;;;;;5078147;28;20042;-79
2023/09/23 00:33:16;;;;;;;8.25;7.70;;;;;;;;;;5078102;28;20068;-80
2023/09/23 00:35:44;;;;;;;7.30;6.90;;;;;;;;;;5078281;28;20048;-79
2023/09/23 00:38:12;;;;;;;7.32;6.72;;;;;;;;;;5077724;28;20059;-78
2023/09/23 00:40:38;;;;;;;8.57;7.82;;;;;;;;;;5078736;28;20044;-79
2023/09/23 00:43:17;;;;;;;6.97;6.45;;;;;;;;;;5061208;28;20043;-79
2023/09/23 00:45:51;;;;;;;6.63;6.10;;;;;;;;;;5078089;28;20406;-79
2023/09/23 00:48:21;;;;;;;6.95;6.28;;;;;;;;;;5077983;28;20396;-78
2023/09/23 00:50:51;;;;;;;5.63;5.32;;;;;;;;;;5077720;28;20048;-79
2023/09/23 00:53:17;;;;;;;5.95;5.65;;;;;;;;;;5077586;28;20040;-79
2023/09/23 00:55:47;;;;;;;6.15;5.72;;;;;;;;;;5077582;28;20061;-79
2023/09/23 00:58:17;;;;;;;4.90;4.50;;;;;;;;;;5077818;28;20051;-79
2023/09/23 01:00:48;;;;;;;4.60;4.30;;;;;;;;;;5045351;28;20059;-80
2023/09/23 01:03:15;;;;;;;4.80;4.60;;;;;;;;;;5078326;28;20051;-79
2023/09/23 01:05:41;;;;;;;4.78;4.40;;;;;;;;;;5090314;28;20094;-79
2023/09/23 01:08:21;;;;;;;3.22;3.03;;;;;;;;;;5057312;28;20552;-80
2023/09/23 01:10:51;;;;;;;2.47;2.28;;;;;;;;;;5057869;28;20047;-79
2023/09/23 01:13:22;;;;;;;1.88;1.77;;;;;;;;;;5056865;28;20048;-80
2023/09/23 01:15:49;;;;;;;1.10;1.00;;;;;;;;;;5056811;28;20059;-80
2023/09/23 01:18:15;;;;;;;1.17;0.80;;;;;;;;;;5040114;28;20040;-81
2023/09/23 01:20:45;;;;;;;1.20;0.65;;;;;;;;;;5056705;28;20040;-81
2023/09/23 01:23:12;;;;;;;2.00;0.90;;;;;;;;;;5056568;28;20056;-81
2023/09/23 01:25:38;;;;;;;1.55;0.70;;;;;;;;;;5056972;28;20049;-80
2023/09/23 01:28:08;;;;;;;2.08;0.75;;;;;;;;;;5040212;28;20135;-80
2023/09/23 01:30:35;;;;;;;1.27;1.13;;;;;;;;;;5040305;28;20098;-80
2023/09/23 01:33:07;;;;;;;1.77;1.67;;;;;;;;;;5056926;28;20451;-81
2023/09/23 01:35:33;;;;;;;2.10;1.92;;;;;;;;;;5057664;28;20114;-81
2023/09/23 01:38:02;;;;;;;2.17;2.08;;;;;;;;;;5057564;28;20049;-81
2023/09/23 01:40:31;;;;;;;2.97;2.88;;;;;;;;;;5056396;28;20053;-80
2023/09/23 01:43:04;;;;;;;3.92;3.63;;;;;;;;;;5056696;28;20048;-80
2023/09/23 01:45:30;;;;;;;4.05;3.70;;;;;;;;;;5040858;28;20131;-80
2023/09/23 01:47:56;;;;;;;6.50;6.05;;;;;;;;;;5039827;28;20056;-80
2023/09/23 01:50:29;;;;;;;4.75;4.45;;;;;;;;;;5057054;28;20062;-80
2023/09/23 01:53:01;;;;;;;5.03;4.72;;;;;;;;;;5039888;28;20060;-80
2023/09/23 01:55:28;;;;;;;6.05;5.72;;;;;;;;;;5056852;28;20048;-80
2023/09/23 01:57:54;;;;;;;6.75;6.22;;;;;;;;;;5056128;28;20044;-80
2023/09/23 02:00:28;;;;;;;7.82;7.30;;;;;;;;;;5039835;28;20067;-80
2023/09/23 02:02:55;;;;;;;21.90;6.72;;;;;;;;;;5056440;28;20041;-80
2023/09/23 02:05:24;;;;;;;6.82;6.25;;;;;;;;;;5039733;28;20050;-81
2023/09/23 02:07:50;;;;;;;7.00;6.40;;;;;;;;;;5055973;28;20062;-80
2023/09/23 02:10:21;;;;;;;6.40;5.90;;;;;;;;;;5056232;28;20131;-80
2023/09/23 02:12:47;;;;;;;5.45;5.15;;;;;;;;;;5056183;28;20404;-80
2023/09/23 02:15:14;;;;;;;5.40;5.10;;;;;;;;;;5056123;28;20048;-80
2023/09/23 02:17:41;;;;;;;4.93;4.53;;;;;;;;;;5056893;28;20449;-79
2023/09/23 02:20:18;;;;;;;4.50;4.18;;;;;;;;;;5039588;28;20048;-80
2023/09/23 02:22:45;;;;;;;4.05;3.65;;;;;;;;;;5039585;28;20056;-80
2023/09/23 02:25:13;;;;;;;4.18;3.88;;;;;;;;;;5055751;28;20131;-80
2023/09/23 02:27:40;;;;;;;4.38;4.05;;;;;;;;;;5055910;28;20095;-81
2023/09/23 02:30:11;;;;;;;4.03;3.78;;;;;;;;;;5056393;28;20456;-80
2023/09/23 02:32:39;;;;;;;4.25;3.95;;;;;;;;;;5039327;28;20045;-80
2023/09/23 02:35:07;;;;;;;3.80;3.60;;;;;;;;;;5039057;28;20052;-80
2023/09/23 02:37:33;;;;;;;5.03;3.92;;;;;;;;;;5055313;28;20053;-80
2023/09/23 02:39:59;;;;;;;3.97;3.70;;;;;;;;;;5039457;28;20538;-80
2023/09/23 02:42:25;;;;;;;3.97;3.78;;;;;;;;;;5038925;28;20476;-80
2023/09/23 02:44:52;;;;;;;3.40;3.13;;;;;;;;;;5039309;28;20431;-80
2023/09/23 02:47:19;;;;;;;4.00;3.78;;;;;;;;;;5055686;28;20075;-80
2023/09/23 02:49:45;;;;;;;4.00;3.75;;;;;;;;;;5038774;28;20037;-80
2023/09/23 02:52:11;;;;;;;5.00;4.57;;;;;;;;;;5039116;28;20071;-80
2023/09/23 02:54:37;;;;;;;4.93;4.63;;;;;;;;;;5039197;28;20421;-79
2023/09/23 02:57:07;;;;;;;5.50;5.00;;;;;;;;;;5022834;28;20078;-80
2023/09/23 02:59:41;;;;;;;6.07;5.57;;;;;;;;;;5039282;28;20049;-80
2023/09/23 03:02:07;;;;;;;6.85;6.22;;;;;;;;;;5056410;28;20052;-80
2023/09/23 03:04:34;;;;;;;7.15;6.47;;;;;;;;;;5039328;28;20076;-80
2023/09/23 03:07:02;;;;;;;7.53;6.82;;;;;;;;;;5070968;28;20059;-80
2023/09/23 03:09:32;;;;;;;7.78;7.18;;;;;;;;;;5058828;28;20079;-80
2023/09/23 03:12:00;;;;;;;7.97;7.38;;;;;;;;;;5076406;28;20479;-80
2023/09/23 03:14:36;;;;;;;8.35;7.70;;;;;;;;;;5075506;28;20054;-80
2023/09/23 03:17:03;;;;;;;8.82;8.05;;;;;;;;;;5076366;28;20060;-80
2023/09/23 03:19:32;;;;;;;9.38;8.73;;;;;;;;;;5059284;28;20094;-80
2023/09/23 03:21:58;;;;;;;8.43;7.70;;;;;;;;;;5058723;28;20070;-80
2023/09/23 03:24:28;;;;;;;9.38;8.50;;;;;;;;;;5075522;28;20048;-80
2023/09/23 03:26:56;;;;;;;8.73;8.20;;;;;;;;;;5076320;28;20048;-81
2023/09/23 03:29:22;;;;;;;9.18;8.48;;;;;;;;;;5075267;28;20036;-79
2023/09/23 03:31:49;;;;;;;10.15;9.25;;;;;;;;;;5075867;28;20485;-80
2023/09/23 03:34:16;;;;;;;10.35;9.48;;;;;;;;;;5075320;28;20406;-80
2023/09/23 03:36:44;;;;;;;10.07;9.38;;;;;;;;;;5058619;28;20083;-80
2023/09/23 03:39:11;;;;;;;10.82;9.93;;;;;;;;;;5059450;28;20044;-80
2023/09/23 03:41:37;;;;;;;10.63;9.70;;;;;;;;;;5058602;28;20100;-80
2023/09/23 03:44:07;;;;;;;11.38;10.30;;;;;;;;;;5075248;28;20174;-80
2023/09/23 03:46:33;;;;;;;12.13;11.13;;;;;;;;;;5075203;28;20044;-81
2023/09/23 03:49:00;;;;;;;11.38;10.57;;;;;;;;;;5076551;28;20051;-80
2023/09/23 03:51:26;;;;;;;11.82;10.93;;;;;;;;;;5078789;28;20079;-80
2023/09/23 03:53:52;;;;;;;12.25;11.20;;;;;;;;;;5078753;28;20040;-80
2023/09/23 03:56:24;;;;;;;11.40;10.50;;;;;;;;;;5062117;28;20132;-80
2023/09/23 03:58:51;;;;;;;12.20;11.25;;;;;;;;;;5078945;28;20056;-81
2023/09/23 04:01:17;;;;;;;11.98;11.02;;;;;;;;;;5078827;28;20088;-80
2023/09/23 04:03:43;;;;;;;12.82;11.65;;;;;;;;;;5078231;28;20051;-81
2023/09/23 04:06:09;;;;;;;12.32;11.10;;;;;;;;;;5061530;28;20055;-80
2023/09/23 04:08:38;;;;;;;13.20;12.10;;;;;;;;;;5078074;28;20509;-80
2023/09/23 04:11:05;;;;;;;12.00;10.93;;;;;;;;;;5061882;28;20044;-80
2023/09/23 04:13:31;;;;;;;12.70;11.63;;;;;;;;;;5078618;28;20040;-80
2023/09/23 04:16:00;;;;;;;12.32;11.20;;;;;;;;;;5078580;28;20058;-81
2023/09/23 04:18:26;;;;;;;12.68;11.70;;;;;;;;;;5078355;28;20070;-80
2023/09/23 04:20:53;;;;;;;13.25;12.10;;;;;;;;;;5078267;28;20441;-81
2023/09/23 04:23:19;;;;;;;13.25;12.07;;;;;;;;;;5078226;28;20051;-81
2023/09/23 04:25:45;;;;;;;12.40;11.27;;;;;;;;;;5078928;28;20173;-80
2023/09/23 04:28:11;;;;;;;14.02;12.75;;;;;;;;;;5077871;28;20040;-81
2023/09/23 04:30:37;;;;;;;13.02;11.82;;;;;;;;;;5061059;28;20079;-81
2023/09/23 04:33:04;;;;;;;13.95;12.73;;;;;;;;;;5061717;28;20043;-80
2023/09/23 04:35:30;;;;;;;13.70;12.52;;;;;;;;;;5061177;28;20540;-81
2023/09/23 04:37:56;;;;;;;13.25;12.02;;;;;;;;;;5078796;28;20055;-81
2023/09/23 04:40:22;;;;;;;13.23;12.07;;;;;;;;;;5077878;28;20044;-80
2023/09/23 04:42:48;;;;;;;14.43;13.13;;;;;;;;;;5078630;28;20036;-81
2023/09/23 04:45:15;;;;;;;17.25;15.55;;;;;;;;;;5078049;28;20136;-80
2023/09/23 04:47:43;;;;;;;17.30;15.57;;;;;;;;;;5077657;28;20423;-80
2023/09/23 04:50:11;;;;;;;18.08;16.33;;;;;;;;;;5060909;28;20066;-80
2023/09/23 04:52:38;;;;;;;18.40;16.70;;;;;;;;;;5078466;28;20048;-81
2023/09/23 04:55:06;;;;;;;19.00;17.08;;;;;;;;;;5077499;28;20059;-80
2023/09/23 04:57:32;;;;;;;22.02;19.83;;;;;;;;;;5077481;28;20485;-80
2023/09/23 04:59:58;;;;;;;20.25;18.30;;;;;;;;;;5061101;28;20047;-80
2023/09/23 05:02:26;;;;;;;23.25;20.85;;;;;;;;;;5077419;28;20052;-81
2023/09/23 05:04:53;;;;;;;23.70;20.60;;;;;;;;;;5077270;28;20093;-80
2023/09/23 05:07:25;;;;;;;23.75;21.45;;;;;;;;;;5060610;28;20106;-80
2023/09/23 05:09:51;;;;;;;25.88;23.20;;;;;;;;;;5060394;28;20130;-80
2023/09/23 05:12:18;;;;;;;24.85;22.38;;;;;;;;;;5077502;28;20043;-81
2023/09/23 05:14:45;;;;;;;25.70;23.25;;;;;;;;;;5061623;28;20052;-80
2023/09/23 05:17:15;;;;;;;27.50;24.33;;;;;;;;;;5077977;28;20407;-81
2023/09/23 05:19:46;;;;;;;25.88;23.27;;;;;;;;;;5060790;28;20051;-80
2023/09/23 05:22:12;;;;;;;27.33;24.70;;;;;;;;;;5077414;28;20044;-80
2023/09/23 05:24:39;;;;;;;30.40;27.17;;;;;;;;;;5061171;28;20079;-80
2023/09/23 05:27:05;;;;;;;28.48;25.33;;;;;;;;;;5060270;28;20067;-80
2023/09/23 05:29:32;;;;;;;31.17;28.27;;;;;;;;;;5076718;28;20522;-81
2023/09/23 05:31:58;;;;;;;32.90;29.40;;;;;;;;;;5076846;28;20044;-80
2023/09/23 05:34:24;;;;;;;32.85;29.60;;;;;;;;;;5060447;28;20422;-81
2023/09/23 05:36:51;;;;;;;33.03;29.55;;;;;;;;;;5076839;28;20066;-81
2023/09/23 05:39:20;;;;;;;34.85;31.17;;;;;;;;;;5076669;28;20047;-80
2023/09/23 05:41:47;;;;;;;34.70;31.10;;;;;;;;;;5060290;28;20058;-80
2023/09/23 05:44:16;;;;;;;36.33;32.60;;;;;;;;;;5076733;28;20157;-80
2023/09/23 05:46:43;;;;;;;37.65;33.33;;;;;;;;;;5076465;28;20040;-81
2023/09/23 05:49:09;;;;;;;35.65;31.95;;;;;;;;;;5076284;28;20067;-81
2023/09/23 05:51:35;;;;;;;37.33;33.35;;;;;;;;;;5060288;28;20087;-81
2023/09/23 05:54:02;;;;;;;35.85;32.08;;;;;;;;;;5076754;28;20040;-81
2023/09/23 05:56:28;;;;;;;37.10;33.03;;;;;;;;;;5076528;28;20048;-81
2023/09/23 05:58:54;;;;;;;34.95;31.33;;;;;;;;;;5076700;28;20048;-81
2023/09/23 06:01:20;;;;;;;36.60;32.75;;;;;;;;;;5077155;28;20481;-81
2023/09/23 06:03:48;;;;;;;38.13;34.05;;;;;;;;;;5059728;28;20052;-80
2023/09/23 06:06:14;;;;;;;38.03;33.95;;;;;;;;;;5075792;28;20067;-80
2023/09/23 06:08:40;;;;;;;37.30;33.40;;;;;;;;;;5076169;28;20498;-80
2023/09/23 06:11:07;;;;;;;37.22;33.25;;;;;;;;;;5075831;28;20427;-80
2023/09/23 06:13:34;;;;;;;37.95;33.88;;;;;;;;;;5076443;28;20048;-80
2023/09/23 06:16:01;;;;;;;37.33;33.25;;;;;;;;;;5076166;28;20044;-80
2023/09/23 06:18:27;;;;;;;38.58;34.45;;;;;;;;;;5060321;28;20452;-80
2023/09/23 06:21:00;;;;;;;38.97;34.75;;;;;;;;;;5076128;28;20043;-79
2023/09/23 06:23:27;;;;;;;37.13;33.33;;;;;;;;;;5076339;28;20472;-79
2023/09/23 06:25:57;;;;;;;36.60;32.83;;;;;;;;;;5075805;28;20048;-79
2023/09/23 06:28:23;;;;;;;37.33;33.42;;;;;;;;;;5075975;28;20495;-79
2023/09/23 06:30:49;;;;;;;38.70;34.50;;;;;;;;;;5059276;28;20050;-79
2023/09/23 06:33:16;;;;;;;37.05;33.08;;;;;;;;;;5075682;28;20052;-79
2023/09/23 06:35:42;;;;;;;36.35;32.55;;;;;;;;;;5075659;28;20408;-79
2023/09/23 06:38:08;;;;;;;38.72;34.55;;;;;;;;;;5059966;28;20048;-80
2023/09/23 06:40:34;;;;;;;35.95;32.25;;;;;;;;;;5059877;28;20044;-79
2023/09/23 06:43:00;;;;;;;37.10;33.13;;;;;;;;;;5076189;28;20127;-80
2023/09/23 06:45:26;;;;;;;35.83;32.00;;;;;;;;;;5058993;28;20074;-80
2023/09/23 06:47:52;;;;;;;35.13;31.45;;;;;;;;;;5075758;28;20044;-79
2023/09/23 06:50:19;;;;;;;34.85;31.17;;;;;;;;;;5075503;28;20044;-78
2023/09/23 06:52:46;;;;;;;35.13;31.58;;;;;;;;;;5075767;28;20051;-79
2023/09/23 06:55:12;;;;;;;34.38;30.90;;;;;;;;;;5075808;28;20071;-79
2023/09/23 06:57:38;;;;;;;36.03;32.50;;;;;;;;;;5075838;28;20054;-79
2023/09/23 07:00:07;;;;;;;34.72;31.27;;;;;;;;;;5059024;28;20048;-79
2023/09/23 07:02:33;;;;;;;31.95;28.88;;;;;;;;;;5075977;28;20123;-79
2023/09/23 07:04:59;;;;;;;30.63;27.42;;;;;;;;;;5094036;28;20056;-78
2023/09/23 07:07:26;;;;;;;32.25;29.13;;;;;;;;;;5088691;28;20056;-79
2023/09/23 07:09:52;;;;;;;31.85;28.85;;;;;;;;;;5022712;28;20045;-79
2023/09/23 07:12:18;;;;;;;32.60;29.50;;;;;;;;;;5055860;28;20439;-79
2023/09/23 07:14:44;;;;;;;33.20;29.60;;;;;;;;;;5039002;28;20044;-79
2023/09/23 07:17:10;;;;;;;32.15;28.98;;;;;;;;;;5055479;28;20468;-78
2023/09/23 07:19:36;;;;;;;33.80;30.38;;;;;;;;;;5055526;28;20396;-79
2023/09/23 07:22:03;;;;;;;33.75;30.17;;;;;;;;;;5039399;28;20373;-80
2023/09/23 07:24:32;;;;;;;31.48;28.40;;;;;;;;;;5057791;28;20055;-79
2023/09/23 07:26:58;;;;;;;31.35;28.25;;;;;;;;;;5059228;28;20082;-79
2023/09/23 07:29:24;;;;;;;31.17;28.15;;;;;;;;;;5059381;28;20045;-79
2023/09/23 07:31:56;;;;;;;31.15;28.25;;;;;;;;;;5042642;28;20404;-79
2023/09/23 07:34:22;;;;;;;31.02;28.02;;;;;;;;;;5060059;28;20048;-79
2023/09/23 07:36:48;;;;;;;30.88;27.83;;;;;;;;;;5059192;28;20051;-79
2023/09/23 07:39:16;;;;;;;30.15;27.15;;;;;;;;;;5042518;28;20044;-79
2023/09/23 07:41:42;;;;;;;30.08;26.95;;;;;;;;;;5059051;28;20044;-79
2023/09/23 07:44:10;;;;;;;31.70;26.38;;;;;;;;;;5059035;28;20480;-79
2023/09/23 07:46:37;;;;;;;30.63;27.60;;;;;;;;;;5026243;28;20392;-79
2023/09/23 07:49:03;;;;;;;29.55;26.70;;;;;;;;;;5058752;28;20052;-79
2023/09/23 07:51:29;;;;;;;30.20;27.30;;;;;;;;;;5042353;28;20036;-79
2023/09/23 07:53:55;;;;;;;27.65;24.92;;;;;;;;;;5058847;28;20051;-79
2023/09/23 07:56:21;;;;;;;26.30;23.80;;;;;;;;;;5042204;28;20053;-78
2023/09/23 07:58:47;;;;;;;28.40;25.65;;;;;;;;;;5058742;28;20199;-79
2023/09/23 08:01:13;;;;;;;24.25;22.00;;;;;;;;;;5041845;28;20048;-79
2023/09/23 08:03:39;;;;;;;26.38;23.88;;;;;;;;;;5025641;28;20048;-79
2023/09/23 08:06:05;;;;;;;26.10;23.50;;;;;;;;;;5042078;28;20219;-79
2023/09/23 08:08:31;;;;;;;24.83;22.60;;;;;;;;;;5072022;28;20056;-79
2023/09/23 08:10:57;;;;;;;23.50;21.38;;;;;;;;;;5078547;28;20052;-79
2023/09/23 08:13:26;;;;;;;25.80;23.40;;;;;;;;;;5078487;28;20040;-78
2023/09/23 08:15:57;;;;;;;22.50;20.40;;;;;;;;;;5078799;28;20054;-79
2023/09/23 08:18:23;;;;;;;23.60;21.55;;;;;;;;;;5078142;28;20051;-80
2023/09/23 08:20:56;;;;;;;23.77;21.50;;;;;;;;;;5078625;28;20434;-79
2023/09/23 08:23:22;;;;;;;22.52;20.63;;;;;;;;;;5078360;28;20496;-79
2023/09/23 08:25:49;;;;;;;22.63;20.63;;;;;;;;;;5061321;28;20094;-79
2023/09/23 08:28:15;;;;;;;22.17;20.17;;;;;;;;;;5078164;28;20048;-79
2023/09/23 08:30:44;;;;;;;21.65;19.73;;;;;;;;;;5078268;28;20388;-79
2023/09/23 08:33:13;;;;;;;19.65;17.95;;;;;;;;;;5078418;28;20044;-79
2023/09/23 08:35:41;;;;;;;20.42;18.55;;;;;;;;;;5061063;28;20036;-79
2023/09/23 08:38:08;;;;;;;19.80;18.02;;;;;;;;;;5061362;28;20044;-79
2023/09/23 08:40:36;;;;;;;20.75;18.85;;;;;;;;;;5061125;28;20051;-79
2023/09/23 08:43:04;;;;;;;20.67;18.77;;;;;;;;;;5061395;28;20040;-80
2023/09/23 08:45:31;;;;;;;20.67;18.88;;;;;;;;;;5062039;28;20047;-79
2023/09/23 08:47:57;;;;;;;18.90;17.23;;;;;;;;;;5077881;28;20040;-80
2023/09/23 08:50:25;;;;;;;20.20;18.30;;;;;;;;;;5077607;28;20102;-80
2023/09/23 08:52:52;;;;;;;19.40;17.55;;;;;;;;;;5061112;28;20134;-79
2023/09/23 08:55:19;;;;;;;20.52;18.75;;;;;;;;;;5078109;28;20039;-80
2023/09/23 08:57:45;;;;;;;19.98;18.17;;;;;;;;;;5060827;28;20055;-80
2023/09/23 09:00:13;;;;;;;20.17;18.33;;;;;;;;;;5077426;28;20036;-79
2023/09/23 09:02:39;;;;;;;20.08;18.38;;;;;;;;;;5061037;28;20044;-80
2023/09/23 09:05:05;;;;;;;19.83;18.02;;;;;;;;;;5078462;28;20116;-79
2023/09/23 09:07:35;;;;;;;19.98;17.92;;;;;;;;;;5073858;28;20102;-81
2023/09/23 09:10:02;;;;;;;18.70;16.90;;;;;;;;;;5040686;28;20384;-80
2023/09/23 09:12:29;;;;;;;16.92;15.60;;;;;;;;;;5040825;28;20044;-80
2023/09/23 09:14:56;;;;;;;16.00;14.70;;;;;;;;;;5057662;28;20083;-80
2023/09/23 09:17:22;;;;;;;16.63;15.23;;;;;;;;;;5058045;28;20419;-79
2023/09/23 09:19:49;;;;;;;16.50;15.10;;;;;;;;;;5058111;28;20048;-79
2023/09/23 09:22:16;;;;;;;16.83;15.32;;;;;;;;;;5057249;28;20203;-79
2023/09/23 09:24:43;;;;;;;15.50;14.30;;;;;;;;;;5057094;28;20052;-79
2023/09/23 09:27:12;;;;;;;16.63;15.30;;;;;;;;;;5056846;28;20051;-80
2023/09/23 09:29:41;;;;;;;15.15;14.05;;;;;;;;;;5057207;28;20435;-79
2023/09/23 09:32:10;;;;;;;15.57;14.23;;;;;;;;;;5040464;28;20041;-79
2023/09/23 09:34:43;;;;;;;14.70;13.25;;;;;;;;;;5056958;28;20472;-79
2023/09/23 09:37:11;;;;;;;13.77;12.68;;;;;;;;;;5057773;28;20040;-79
2023/09/23 09:39:39;;;;;;;14.07;12.88;;;;;;;;;;5040294;28;20041;-79
2023/09/23 09:42:06;;;;;;;13.70;12.43;;;;;;;;;;5057103;28;20048;-78
2023/09/23 09:44:33;;;;;;;13.15;11.57;;;;;;;;;;5040583;28;20044;-78
2023/09/23 09:47:00;;;;;;;10.32;9.32;;;;;;;;;;5056004;28;20131;-79
2023/09/23 09:49:26;;;;;;;10.35;9.55;;;;;;;;;;5040159;28;20036;-79
2023/09/23 09:51:52;;;;;;;10.50;9.60;;;;;;;;;;5057438;28;20044;-79
2023/09/23 09:54:20;;;;;;;11.55;10.55;;;;;;;;;;5023586;28;20048;-79
2023/09/23 09:56:48;;;;;;;10.32;9.55;;;;;;;;;;5039709;28;20051;-79
2023/09/23 09:59:27;;;;;;;10.18;9.30;;;;;;;;;;5056610;28;20049;-78
2023/09/23 10:01:56;;;;;;;11.80;9.77;;;;;;;;;;5056508;28;20150;-78
2023/09/23 10:04:23;;;;;;;10.95;9.95;;;;;;;;;;5056783;28;20044;-79
2023/09/23 10:06:56;;;;;;;9.35;8.55;;;;;;;;;;5039725;28;20493;-78
2023/09/23 10:09:33;;;;;;;12.32;8.93;;;;;;;;;;5058065;28;20127;-78
2023/09/23 10:11:59;;;;;;;9.00;8.30;;;;;;;;;;5076126;28;20079;-79
2023/09/23 10:14:26;;;;;;;9.40;8.60;;;;;;;;;;5076575;28;20498;-78
2023/09/23 10:16:59;;;;;;;9.27;8.45;;;;;;;;;;5059919;28;20047;-79
2023/09/23 10:19:38;;;;;;;8.25;7.47;;;;;;;;;;5077086;28;20044;-80
2023/09/23 10:22:20;;;;;;;8.40;7.65;;;;;;;;;;5076614;28;20036;-79
2023/09/23 10:24:57;;;;;;;7.68;7.05;;;;;;;;;;5060357;28;20050;-79
2023/09/23 10:27:24;;;;;;;8.25;7.45;;;;;;;;;;5076539;28;20043;-79
2023/09/23 10:29:50;;;;;;;7.07;6.07;;;;;;;;;;5075623;28;20036;-78
2023/09/23 10:32:17;;;;;;;9.52;6.15;;;;;;;;;;5076112;28;20127;-78
2023/09/23 10:34:49;;;;;;;6.47;5.40;;;;;;;;;;5076071;28;20040;-79
2023/09/23 10:37:29;;;;;;;6.57;4.70;;;;;;;;;;5059709;28;20054;-78
2023/09/23 10:39:56;;;;;;;7.82;4.40;;;;;;;;;;5076843;28;20055;-79
2023/09/23 10:42:22;;;;;;;5.03;3.03;;;;;;;;;;5059162;28;20044;-79
2023/09/23 10:44:48;;;;;;;4.45;2.97;;;;;;;;;;5075893;28;20083;-78
2023/09/23 10:47:14;;;;;;;4.55;2.13;;;;;;;;;;5075838;28;20048;-79
2023/09/23 10:49:40;;;;;;;2.97;2.08;;;;;;;;;;5075620;28;20047;-79
2023/09/23 10:52:07;;;;;;;4.55;2.35;;;;;;;;;;5059189;28;20453;-79
2023/09/23 10:54:35;;;;;;;4.25;2.30;;;;;;;;;;5076168;28;20090;-79
2023/09/23 10:57:01;;;;;;;4.88;3.00;;;;;;;;;;5075897;28;20515;-78
2023/09/23 10:59:28;;;;;;;4.63;2.35;;;;;;;;;;5080005;28;20059;-79
2023/09/23 11:01:57;;;;;;;7.43;2.30;;;;;;;;;;5097706;28;20055;-79
2023/09/23 11:04:24;;;;;;;4.15;2.50;;;;;;;;;;5063118;28;20100;-79
2023/09/23 11:06:50;;;;;;;4.43;2.17;;;;;;;;;;5063381;28;20156;-79
2023/09/23 11:09:16;;;;;;;4.57;2.13;;;;;;;;;;5078938;28;20174;-79
2023/09/23 11:11:42;;;;;;;5.15;1.48;;;;;;;;;;5079603;28;20518;-79
2023/09/23 11:14:14;;;;;;;2.45;1.70;;;;;;;;;;5062931;28;20130;-79
2023/09/23 11:16:47;;;;;;;2.97;1.80;;;;;;;;;;5062929;28;20052;-79
2023/09/23 11:19:13;;;;;;;3.95;2.15;;;;;;;;;;5063090;28;20430;-78
2023/09/23 11:21:44;;;;;;;3.03;1.90;;;;;;;;;;5080260;28;20392;-79
2023/09/23 11:24:10;;;;;;;4.80;2.30;;;;;;;;;;5079402;28;20059;-79
2023/09/23 11:26:40;;;;;;;6.43;2.58;;;;;;;;;;5079368;28;20051;-79
2023/09/23 11:29:06;;;;;;;5.32;2.08;;;;;;;;;;5079086;28;20044;-78
2023/09/23 11:31:33;;;;;;;5.28;3.22;;;;;;;;;;5080128;28;20459;-79
2023/09/23 11:33:59;;;;;;;3.95;2.55;;;;;;;;;;5062629;28;20135;-79
2023/09/23 11:36:25;;;;;;;4.10;2.45;;;;;;;;;;5046789;28;20052;-79
2023/09/23 11:38:51;;;;;;;4.88;2.60;;;;;;;;;;5062569;28;20048;-79
2023/09/23 11:41:17;;;;;;;3.72;2.35;;;;;;;;;;5063285;28;20400;-79
2023/09/23 11:43:44;;;;;;;3.72;2.35;;;;;;;;;;5079092;28;20087;-78
2023/09/23 11:46:14;;;;;;;3.35;2.10;;;;;;;;;;5078963;28;20526;-78
2023/09/23 11:48:41;;;;;;;5.82;1.98;;;;;;;;;;5045830;28;20066;-79
2023/09/23 11:51:07;;;;;;;3.55;2.05;;;;;;;;;;5062471;28;20048;-78
2023/09/23 11:53:35;;;;;;;4.75;1.80;;;;;;;;;;5063068;28;20052;-79
2023/09/23 11:56:02;;;;;;;3.22;1.70;;;;;;;;;;5062550;28;20048;-78
2023/09/23 11:58:28;;;;;;;1.92;1.50;;;;;;;;;;5078805;28;20052;-79
2023/09/23 12:00:56;;;;;;;2.78;1.17;;;;;;;;;;5078788;28;20055;-79
2023/09/23 12:03:22;;;;;;;3.28;1.25;;;;;;;;;;5078667;28;20105;-79
2023/09/23 12:05:50;;;;;;;2.42;0.90;;;;;;;;;;5079047;28;20438;-79
2023/09/23 12:08:16;;;;;;;1.27;0.70;;;;;;;;;;5076802;28;20059;-79
2023/09/23 12:10:42;;;;;;;3.47;0.73;;;;;;;;;;5058137;28;20048;-79
2023/09/23 12:13:08;;;;;;;2.15;1.05;;;;;;;;;;5058561;28;20048;-79
2023/09/23 12:15:35;;;;;;;1.15;0.77;;;;;;;;;;5042145;28;20389;-79
2023/09/23 12:18:01;;;;;;;4.63;1.23;;;;;;;;;;5042671;28;20052;-78
2023/09/23 12:20:28;;;;;;;3.88;0.82;;;;;;;;;;5058323;28;20044;-79
2023/09/23 12:22:57;;;;;;;2.63;0.77;;;;;;;;;;5058594;28;20044;-79
2023/09/23 12:25:23;;;;;;;3.33;0.88;;;;;;;;;;5041605;28;20051;-79
2023/09/23 12:27:49;;;;;;;2.00;0.57;;;;;;;;;;5058243;28;20551;-79
2023/09/23 12:30:17;;;;;;;1.08;0.77;;;;;;;;;;5057887;28;20385;-78
2023/09/23 12:32:44;;;;;;;2.28;0.65;;;;;;;;;;5041392;28;20047;-78
2023/09/23 12:35:11;;;;;;;2.08;0.50;;;;;;;;;;5058051;28;20047;-79
2023/09/23 12:37:37;;;;;;;2.95;0.40;;;;;;;;;;5041295;28;20101;-80
2023/09/23 12:40:05;;;;;;;4.13;0.80;;;;;;;;;;5041284;28;20469;-80
2023/09/23 12:42:31;;;;;;;2.83;0.82;;;;;;;;;;5057966;28;20068;-79
2023/09/23 12:44:57;;;;;;;3.80;0.52;;;;;;;;;;5041381;28;20049;-79
2023/09/23 12:47:23;;;;;;;1.65;0.60;;;;;;;;;;5041591;28;20048;-79
2023/09/23 12:49:49;;;;;;;4.80;0.88;;;;;;;;;;5057616;28;20051;-80
2023/09/23 12:52:15;;;;;;;1.40;0.68;;;;;;;;;;5041208;28;20080;-80
2023/09/23 12:54:41;;;;;;;2.38;0.55;;;;;;;;;;5057807;28;20400;-79
2023/09/23 12:57:08;;;;;;;1.20;0.45;;;;;;;;;;5058551;28;20045;-79
2023/09/23 12:59:34;;;;;;;2.25;0.60;;;;;;;;;;5057913;28;20489;-79
2023/09/23 13:02:00;;;;;;;2.50;0.50;;;;;;;;;;5057924;28;20102;-79
2023/09/23 13:04:28;;;;;;;2.88;0.68;;;;;;;;;;5057620;28;20048;-79
2023/09/23 13:06:54;;;;;;;3.05;0.75;;;;;;;;;;5057813;28;20048;-79
2023/09/23 13:09:20;;;;;;;2.35;0.60;;;;;;;;;;5067047;28;20063;-79
2023/09/23 13:11:47;;;;;;;2.90;0.90;;;;;;;;;;5078317;28;20052;-79
2023/09/23 13:14:13;;;;;;;2.08;0.80;;;;;;;;;;5060729;28;20059;-80
2023/09/23 13:16:39;;;;;;;3.38;0.95;;;;;;;;;;5077273;28;20056;-80
2023/09/23 13:19:05;;;;;;;2.53;1.20;;;;;;;;;;5077348;28;20048;-80
2023/09/23 13:21:31;;;;;;;1.83;0.80;;;;;;;;;;5076197;28;20465;-80
2023/09/23 13:23:57;;;;;;;1.83;0.70;;;;;;;;;;5077222;28;20044;-80
2023/09/23 13:26:24;;;;;;;2.38;0.40;;;;;;;;;;5077971;28;20178;-79
2023/09/23 13:28:50;;;;;;;1.75;0.30;;;;;;;;;;5060509;28;20040;-80
2023/09/23 13:31:16;;;;;;;0.98;0.20;;;;;;;;;;5076753;28;20075;-80
2023/09/23 13:33:43;;;;;;;0.68;0.25;;;;;;;;;;5077233;28;20051;-80
2023/09/23 13:36:10;;;;;;;2.15;0.30;;;;;;;;;;5077088;28;20040;-81
2023/09/23 13:38:36;;;;;;;2.00;0.40;;;;;;;;;;5060110;28;20051;-81
2023/09/23 13:41:04;;;;;;;1.20;0.30;;;;;;;;;;5076727;28;20539;-80
2023/09/23 13:43:30;;;;;;;0.60;0.20;;;;;;;;;;5060892;28;20357;-80
2023/09/23 13:45:56;;;;;;;1.88;0.20;;;;;;;;;;5060344;28;20055;-81
2023/09/23 13:48:22;;;;;;;0.82;0.20;;;;;;;;;;5076638;28;20054;-79
2023/09/23 13:50:48;;;;;;;1.40;0.20;;;;;;;;;;5076721;28;20048;-80
2023/09/23 13:53:14;;;;;;;0.25;0.10;;;;;;;;;;5060448;28;20044;-80
2023/09/23 13:55:40;;;;;;;0.75;0.20;;;;;;;;;;5060257;28;20108;-80
2023/09/23 13:58:07;;;;;;;0.50;0.20;;;;;;;;;;5077377;28;20051;-80
2023/09/23 14:00:33;;;;;;;1.42;0.20;;;;;;;;;;5060732;28;20555;-80
2023/09/23 14:03:00;;;;;;;3.10;0.22;;;;;;;;;;5059897;28;20093;-80
2023/09/23 14:05:26;;;;;;;0.63;0.15;;;;;;;;;;5076489;28;20090;-80
2023/09/23 14:07:52;;;;;;;1.27;0.20;;;;;;;;;;5059899;28;20136;-80
2023/09/23 14:10:18;;;;;;;2.90;0.20;;;;;;;;;;5075858;28;20052;-79
2023/09/23 14:12:45;;;;;;;0.70;0.20;;;;;;;;;;5076279;28;20048;-80
2023/09/23 14:15:11;;;;;;;1.65;0.20;;;;;;;;;;5076339;28;20040;-80
2023/09/23 14:17:37;;;;;;;0.40;0.10;;;;;;;;;;5076224;28;20131;-81
2023/09/23 14:20:05;;;;;;;0.45;0.10;;;;;;;;;;5059622;28;20472;-80
2023/09/23 14:22:31;;;;;;;0.52;0.10;;;;;;;;;;5059901;28;20086;-80
2023/09/23 14:24:57;;;;;;;0.68;0.10;;;;;;;;;;5076165;28;20094;-81
2023/09/23 14:27:23;;;;;;;0.98;0.10;;;;;;;;;;5076208;28;20055;-79
2023/09/23 14:29:51;;;;;;;0.70;0.10;;;;;;;;;;5076215;28;20080;-80
2023/09/23 14:32:17;;;;;;;1.48;0.20;;;;;;;;;;5059288;28;20055;-80